createdAt,value
2022-08-18T00:01:08.197Z,22.46
2022-08-18T00:03:55.810Z,22.44
2022-08-18T00:06:21.015Z,22.45
2022-08-18T00:08:47.391Z,22.45
2022-08-18T00:11:14.801Z,22.41
2022-08-18T00:13:41.333Z,22.37
2022-08-18T00:16:07.819Z,22.32
2022-08-18T00:18:34.287Z,22.28
2022-08-18T00:21:02.270Z,22.23
2022-08-18T00:23:32.644Z,22.20
2022-08-18T00:26:00.268Z,22.17
2022-08-18T00:28:27.136Z,22.14
2022-08-18T00:30:54.275Z,22.09
2022-08-18T00:33:21.423Z,22.04
2022-08-18T00:35:48.263Z,22.00
2022-08-18T00:38:24.600Z,21.96
2022-08-18T00:40:53.347Z,21.92
2022-08-18T00:43:24.934Z,21.92
2022-08-18T00:45:51.468Z,21.90
2022-08-18T00:48:18.837Z,21.91
2022-08-18T00:50:58.028Z,21.92
2022-08-18T00:53:35.578Z,21.96
2022-08-18T00:56:10.430Z,22.00
2022-08-18T00:58:43.248Z,22.05
2022-08-18T01:01:12.229Z,22.10
2022-08-18T01:03:40.304Z,22.13
2022-08-18T01:06:15.546Z,22.18
2022-08-18T01:08:42.747Z,22.21
2022-08-18T01:11:10.531Z,22.21
2022-08-18T01:13:41.594Z,22.22
2022-08-18T01:16:27.216Z,22.23
2022-08-18T01:19:12.877Z,22.25
2022-08-18T01:21:51.926Z,22.28
2022-08-18T01:24:22.102Z,22.29
2022-08-18T01:26:52.054Z,22.30
2022-08-18T01:29:19.731Z,22.33
2022-08-18T01:31:56.022Z,22.37
2022-08-18T01:34:27.467Z,22.40
2022-08-18T01:36:54.978Z,22.42
2022-08-18T01:41:24.961Z,22.44
2022-08-18T01:42:10.037Z,22.43
2022-08-18T01:44:36.661Z,22.42
2022-08-18T01:47:03.880Z,22.40
2022-08-18T01:49:30.417Z,22.37
2022-08-18T01:51:56.859Z,22.34
2022-08-18T01:54:23.371Z,22.30
2022-08-18T01:56:50.243Z,22.27
2022-08-18T01:59:16.794Z,22.23
2022-08-18T02:01:50.484Z,22.19
2022-08-18T02:04:35.552Z,22.16
2022-08-18T02:07:06.698Z,22.14
2022-08-18T02:09:33.678Z,22.12
2022-08-18T02:12:01.298Z,22.09
2022-08-18T02:14:27.814Z,22.08
2022-08-18T02:17:02.122Z,22.06
2022-08-18T02:19:38.437Z,22.04
2022-08-18T02:22:06.630Z,22.02
2022-08-18T02:24:33.100Z,21.98
2022-08-18T02:26:59.716Z,21.94
2022-08-18T02:29:26.210Z,21.90
2022-08-18T02:31:52.938Z,21.86
2022-08-18T02:34:19.359Z,21.85
2022-08-18T02:36:46.045Z,21.83
2022-08-18T02:39:12.827Z,21.83
2022-08-18T02:41:39.479Z,21.83
2022-08-18T02:44:09.403Z,21.87
2022-08-18T02:46:37.141Z,21.87
2022-08-18T02:49:05.713Z,21.91
2022-08-18T02:51:32.234Z,21.95
2022-08-18T02:53:59.596Z,21.99
2022-08-18T02:56:40.437Z,22.04
2022-08-18T02:59:11.917Z,22.06
2022-08-18T03:01:41.166Z,22.10
2022-08-18T03:04:10.287Z,22.13
2022-08-18T03:06:38.719Z,22.16
2022-08-18T03:09:06.984Z,22.19
2022-08-18T03:11:33.538Z,22.21
2022-08-18T03:14:03.158Z,22.24
2022-08-18T03:16:32.836Z,22.26
2022-08-18T03:19:01.266Z,22.30
2022-08-18T03:21:29.947Z,22.31
2022-08-18T03:24:00.790Z,22.35
2022-08-18T03:26:29.705Z,22.37
2022-08-18T03:28:57.086Z,22.39
2022-08-18T03:31:27.938Z,22.41
2022-08-18T03:33:57.841Z,22.42
2022-08-18T03:36:29.597Z,22.44
2022-08-18T03:38:57.012Z,22.44
2022-08-18T03:41:43.979Z,22.47
2022-08-18T03:44:14.890Z,22.50
2022-08-18T03:46:43.366Z,22.50
2022-08-18T03:49:10.294Z,22.51
2022-08-18T03:51:37.573Z,22.52
2022-08-18T03:54:05.892Z,22.53
2022-08-18T03:56:35.212Z,22.54
2022-08-18T03:59:08.256Z,22.56
2022-08-18T04:01:39.524Z,22.59
2022-08-18T04:04:08.844Z,22.60
2022-08-18T04:06:40.285Z,22.60
2022-08-18T04:09:10.758Z,22.63
2022-08-18T04:11:38.787Z,22.63
2022-08-18T04:14:06.124Z,22.64
2022-08-18T04:16:34.995Z,22.63
2022-08-18T04:19:04.529Z,22.64
2022-08-18T04:21:39.782Z,22.63
2022-08-18T04:24:07.473Z,22.63
2022-08-18T04:26:37.245Z,22.61
2022-08-18T04:29:05.223Z,22.58
2022-08-18T04:31:32.283Z,22.56
2022-08-18T04:34:00.336Z,22.54
2022-08-18T04:36:28.953Z,22.54
2022-08-18T04:38:56.502Z,22.52
2022-08-18T04:41:27.353Z,22.53
2022-08-18T04:43:58.281Z,22.54
2022-08-18T04:46:26.305Z,22.54
2022-08-18T04:48:58.773Z,22.56
2022-08-18T04:52:34.024Z,22.57
2022-08-18T04:54:16.116Z,22.62
2022-08-18T04:56:42.752Z,22.64
2022-08-18T04:59:13.976Z,22.68
2022-08-18T05:01:45.659Z,22.72
2022-08-18T05:04:14.309Z,22.75
2022-08-18T05:06:42.638Z,22.78
2022-08-18T05:09:11.109Z,22.84
2022-08-18T05:11:38.958Z,22.89
2022-08-18T05:14:08.693Z,22.95
2022-08-18T05:16:48.155Z,22.99
2022-08-18T05:19:16.643Z,23.05
2022-08-18T05:21:46.001Z,23.10
2022-08-18T05:24:17.811Z,23.15
2022-08-18T05:26:44.547Z,23.19
2022-08-18T05:29:18.774Z,23.22
2022-08-18T05:31:46.336Z,23.29
2022-08-18T05:34:12.964Z,23.32
2022-08-18T05:36:59.089Z,23.37
2022-08-18T05:39:30.429Z,23.40
2022-08-18T05:42:07.403Z,23.42
2022-08-18T05:44:40.097Z,23.43
2022-08-18T05:47:29.725Z,23.44
2022-08-18T05:50:02.581Z,23.45
2022-08-18T05:52:35.386Z,23.47
2022-08-18T05:55:28.220Z,23.50
2022-08-18T05:58:10.363Z,23.55
2022-08-18T06:00:38.081Z,23.58
2022-08-18T06:03:16.233Z,23.62
2022-08-18T06:05:58.057Z,23.66
2022-08-18T06:08:33.958Z,23.70
2022-08-18T06:11:00.429Z,23.75
2022-08-18T06:13:27.072Z,23.81
2022-08-18T06:16:05.295Z,23.83
2022-08-18T06:18:41.759Z,23.84
2022-08-18T06:21:17.231Z,23.84
2022-08-18T06:24:07.985Z,23.88
2022-08-18T06:26:50.292Z,23.92
2022-08-18T06:29:25.941Z,23.99
2022-08-18T06:32:07.743Z,24.05
2022-08-18T06:35:02.028Z,24.11
2022-08-18T06:38:01.737Z,24.19
2022-08-18T06:40:28.446Z,24.27
2022-08-18T06:42:55.296Z,24.34
2022-08-18T06:45:35.950Z,24.43
2022-08-18T06:48:16.094Z,24.50
2022-08-18T06:51:00.897Z,24.59
2022-08-18T06:54:05.718Z,24.69
2022-08-18T06:56:34.982Z,24.76
2022-08-18T06:59:32.034Z,24.83
2022-08-18T07:02:24.594Z,24.88
2022-08-18T07:05:05.499Z,24.95
2022-08-18T07:07:40.738Z,24.97
2022-08-18T07:10:35.880Z,25.03
2022-08-18T07:13:16.884Z,25.06
2022-08-18T07:15:45.771Z,25.07
2022-08-18T07:18:13.856Z,25.09
2022-08-18T07:20:49.921Z,25.10
2022-08-18T07:23:34.515Z,25.10
2022-08-18T07:26:15.855Z,25.09
2022-08-18T07:28:47.213Z,25.07
2022-08-18T07:31:32.185Z,25.06
2022-08-18T07:34:15.496Z,25.03
2022-08-18T07:36:49.202Z,24.96
2022-08-18T07:39:26.237Z,24.92
2022-08-18T07:42:01.967Z,24.85
2022-08-18T07:44:45.138Z,24.85
2022-08-18T07:48:04.033Z,24.85
2022-08-18T07:50:58.426Z,24.89
2022-08-18T07:53:56.092Z,24.93
2022-08-18T07:56:23.034Z,24.96
2022-08-18T07:59:28.135Z,25.02
2022-08-18T08:02:17.656Z,25.03
2022-08-18T08:05:06.769Z,25.05
2022-08-18T08:07:40.292Z,25.08
2022-08-18T08:10:37.585Z,25.09
2022-08-18T08:13:51.259Z,25.10
2022-08-18T08:16:28.532Z,25.13
2022-08-18T08:19:58.449Z,25.18
2022-08-18T08:22:52.935Z,25.23
2022-08-18T08:25:45.753Z,25.25
2022-08-18T08:28:15.004Z,25.26
2022-08-18T08:30:55.210Z,25.29
2022-08-18T08:33:31.678Z,25.31
2022-08-18T08:36:06.699Z,25.36
2022-08-18T08:38:45.376Z,25.43
2022-08-18T08:41:26.091Z,25.51
2022-08-18T08:44:15.512Z,25.63
2022-08-18T08:46:52.748Z,25.76
2022-08-18T08:49:30.698Z,25.87
2022-08-18T08:52:09.902Z,25.99
2022-08-18T08:54:54.083Z,26.12
2022-08-18T08:57:35.911Z,26.22
2022-08-18T09:00:09.378Z,26.31
2022-08-18T09:02:54.181Z,26.39
2022-08-18T09:05:27.786Z,26.46
2022-08-18T09:08:02.943Z,26.54
2022-08-18T09:11:06.868Z,26.63
2022-08-18T09:14:05.655Z,26.71
2022-08-18T09:17:07.532Z,26.77
2022-08-18T09:19:47.486Z,26.79
2022-08-18T09:22:26.120Z,26.79
2022-08-18T09:24:54.786Z,26.78
2022-08-18T09:28:09.456Z,26.77
2022-08-18T09:30:37.256Z,26.77
2022-08-18T09:33:19.919Z,26.77
2022-08-18T09:35:54.729Z,26.77
2022-08-18T09:38:45.242Z,26.80
2022-08-18T09:41:34.120Z,26.83
2022-08-18T09:44:17.902Z,26.86
2022-08-18T09:46:48.242Z,26.90
2022-08-18T09:49:23.812Z,26.96
2022-08-18T09:51:55.470Z,27.01
2022-08-18T09:54:33.242Z,27.06
2022-08-18T09:57:19.424Z,27.11
2022-08-18T09:59:47.774Z,27.13
2022-08-18T10:02:29.088Z,27.15
2022-08-18T10:05:21.254Z,27.18
2022-08-18T10:07:56.103Z,27.15
2022-08-18T10:13:45.127Z,27.04
2022-08-18T10:16:38.281Z,26.96
2022-08-18T10:19:40.249Z,26.91
2022-08-18T10:22:09.585Z,26.86
2022-08-18T10:25:09.195Z,26.86
2022-08-18T10:27:55.080Z,26.89
2022-08-18T10:30:57.279Z,26.92
2022-08-18T10:36:58.982Z,27.11
2022-08-18T10:39:45.118Z,27.21
2022-08-18T10:42:32.615Z,27.33
2022-08-18T10:45:12.500Z,27.44
2022-08-18T10:47:42.712Z,27.54
2022-08-18T10:50:21.283Z,27.67
2022-08-18T10:53:17.050Z,27.79
2022-08-18T10:55:58.891Z,27.89
2022-08-18T10:58:37.102Z,27.95
2022-08-18T11:01:03.459Z,28.02
2022-08-18T11:04:11.643Z,28.05
2022-08-18T11:06:47.464Z,28.11
2022-08-18T11:09:25.224Z,28.16
2022-08-18T11:11:58.460Z,28.23
2022-08-18T11:15:22.303Z,28.34
2022-08-18T11:18:10.530Z,28.44
2022-08-18T11:20:39.489Z,28.50
2022-08-18T11:23:14.378Z,28.60
2022-08-18T11:25:42.675Z,28.67
2022-08-18T11:31:10.207Z,28.92
2022-08-18T11:33:41.434Z,29.07
2022-08-18T11:36:08.509Z,29.19
2022-08-18T11:38:37.907Z,29.35
2022-08-18T11:41:17.257Z,29.50
2022-08-18T11:43:47.409Z,29.62
2022-08-18T11:46:38.852Z,29.75
2022-08-18T11:49:26.553Z,29.87
2022-08-18T11:52:03.233Z,29.96
2022-08-18T11:54:39.272Z,30.06
2022-08-18T11:57:46.989Z,30.16
2022-08-18T12:00:46.905Z,30.27
2022-08-18T12:03:23.917Z,30.37
2022-08-18T12:05:56.290Z,30.46
2022-08-18T12:08:58.109Z,30.57
2022-08-18T12:11:27.672Z,30.69
2022-08-18T12:14:30.365Z,30.81
2022-08-18T12:17:01.909Z,30.94
2022-08-18T12:19:30.709Z,31.05
2022-08-18T12:22:00.041Z,31.14
2022-08-18T12:24:36.863Z,31.21
2022-08-18T12:27:20.495Z,31.27
2022-08-18T12:29:49.441Z,31.30
2022-08-18T12:32:18.199Z,31.31
2022-08-18T12:35:09.615Z,31.29
2022-08-18T12:40:25.276Z,31.32
2022-08-18T12:42:55.847Z,31.38
2022-08-18T12:45:23.439Z,31.44
2022-08-18T12:47:51.771Z,31.53
2022-08-18T12:50:19.514Z,31.62
2022-08-18T12:52:46.692Z,31.69
2022-08-18T12:55:21.413Z,31.76
2022-08-18T12:57:52.048Z,31.82
2022-08-18T13:00:21.106Z,31.84
2022-08-18T13:02:54.986Z,31.85
2022-08-18T13:05:27.946Z,31.82
2022-08-18T13:08:04.555Z,31.77
2022-08-18T13:10:42.994Z,31.70
2022-08-18T13:13:13.584Z,31.69
2022-08-18T13:15:44.327Z,31.70
2022-08-18T13:18:28.906Z,31.73
2022-08-18T13:20:57.662Z,31.78
2022-08-18T13:23:25.884Z,31.83
2022-08-18T13:25:59.401Z,31.87
2022-08-18T13:28:30.481Z,31.93
2022-08-18T13:30:57.290Z,31.98
2022-08-18T13:33:34.778Z,32.04
2022-08-18T13:36:11.947Z,32.10
2022-08-18T13:38:42.756Z,32.13
2022-08-18T13:41:15.623Z,32.17
2022-08-18T13:43:47.857Z,32.17
2022-08-18T13:46:18.595Z,32.19
2022-08-18T13:48:46.819Z,32.16
2022-08-18T13:51:20.260Z,32.15
2022-08-18T13:53:58.863Z,32.10
2022-08-18T13:56:33.231Z,32.06
2022-08-18T13:59:04.836Z,32.01
2022-08-18T14:01:51.938Z,31.94
2022-08-18T14:04:20.621Z,31.88
2022-08-18T14:06:56.258Z,31.80
2022-08-18T14:09:35.718Z,31.71
2022-08-18T14:12:21.547Z,31.61
2022-08-18T14:14:52.106Z,31.47
2022-08-18T14:17:19.259Z,31.35
2022-08-18T14:20:04.315Z,31.24
2022-08-18T14:22:50.086Z,31.14
2022-08-18T14:25:35.379Z,31.08
2022-08-18T14:28:03.917Z,30.99
2022-08-18T14:30:31.392Z,30.92
2022-08-18T14:32:59.425Z,30.84
2022-08-18T14:36:03.765Z,30.79
2022-08-18T14:38:15.116Z,30.73
2022-08-18T14:40:44.288Z,30.67
2022-08-18T14:43:14.191Z,30.62
2022-08-18T14:45:47.469Z,30.56
2022-08-18T14:48:22.265Z,30.49
2022-08-18T14:50:55.348Z,30.37
2022-08-18T14:53:27.582Z,30.22
2022-08-18T14:55:57.505Z,30.03
2022-08-18T14:58:29.249Z,29.83
2022-08-18T15:01:02.926Z,29.63
2022-08-18T15:03:36.559Z,29.45
2022-08-18T15:06:05.432Z,29.32
2022-08-18T15:08:34.366Z,29.22
2022-08-18T15:11:03.422Z,29.14
2022-08-18T15:13:30.074Z,29.08
2022-08-18T15:16:01.851Z,29.02
2022-08-18T15:18:29.286Z,28.96
2022-08-18T15:21:34.979Z,28.86
2022-08-18T15:24:20.530Z,28.80
2022-08-18T15:26:51.822Z,28.75
2022-08-18T15:29:36.848Z,28.73
2022-08-18T15:32:10.398Z,28.74
2022-08-18T15:34:47.065Z,28.77
2022-08-18T15:37:19.948Z,28.81
2022-08-18T15:39:58.461Z,28.87
2022-08-18T15:42:25.750Z,28.91
2022-08-18T15:44:54.130Z,28.95
2022-08-18T15:47:22.227Z,29.02
2022-08-18T15:49:51.625Z,29.06
2022-08-18T15:52:21.134Z,29.12
2022-08-18T15:54:50.939Z,29.14
2022-08-18T15:57:24.309Z,29.17
2022-08-18T16:00:05.652Z,29.21
2022-08-18T16:02:32.229Z,29.25
2022-08-18T16:05:09.156Z,29.30
2022-08-18T16:07:41.384Z,29.39
2022-08-18T16:10:12.717Z,29.46
2022-08-18T16:12:45.594Z,29.56
2022-08-18T16:15:21.089Z,29.63
2022-08-18T16:17:49.772Z,29.73
2022-08-18T16:20:24.389Z,29.85
2022-08-18T16:22:52.491Z,29.93
2022-08-18T16:25:19.616Z,30.05
2022-08-18T16:27:48.001Z,30.16
2022-08-18T16:30:21.910Z,30.27
2022-08-18T16:32:49.416Z,30.31
2022-08-18T16:35:18.623Z,30.33
2022-08-18T16:37:47.012Z,30.34
2022-08-18T16:40:14.781Z,30.37
2022-08-18T16:42:41.480Z,30.40
2022-08-18T16:45:08.886Z,30.45
2022-08-18T16:47:40.467Z,30.50
2022-08-18T16:50:15.207Z,30.58
2022-08-18T16:52:41.909Z,30.61
2022-08-18T16:55:10.292Z,30.66
2022-08-18T16:57:59.796Z,30.74
2022-08-18T17:00:46.723Z,30.81
2022-08-18T17:03:40.074Z,30.86
2022-08-18T17:06:10.788Z,30.92
2022-08-18T17:08:38.507Z,30.97
2022-08-18T17:11:09.791Z,31.10
2022-08-18T17:13:38.531Z,31.22
2022-08-18T17:16:05.128Z,31.30
2022-08-18T17:18:31.761Z,31.37
2022-08-18T17:21:06.369Z,31.43
2022-08-18T17:23:33.848Z,31.47
2022-08-18T17:26:05.935Z,31.52
2022-08-18T17:28:40.338Z,31.57
2022-08-18T17:31:16.244Z,31.61
2022-08-18T17:33:49.049Z,31.66
2022-08-18T17:36:21.794Z,31.68
2022-08-18T17:38:58.528Z,31.69
2022-08-18T17:41:26.122Z,31.70
2022-08-18T17:43:57.240Z,31.73
2022-08-18T17:46:29.239Z,31.74
2022-08-18T17:49:54.275Z,31.76
2022-08-18T17:52:45.744Z,31.77
2022-08-18T17:55:26.298Z,31.74
2022-08-18T17:58:34.867Z,31.69
2022-08-18T18:01:03.325Z,31.64
2022-08-18T18:03:29.745Z,31.59
2022-08-18T18:06:09.226Z,31.53
2022-08-18T18:09:00.644Z,31.38
2022-08-18T18:11:33.608Z,31.22
2022-08-18T18:14:24.228Z,31.02
2022-08-18T18:17:20.135Z,30.79
2022-08-18T18:19:54.137Z,30.57
2022-08-18T18:22:23.850Z,30.34
2022-08-18T18:25:04.433Z,30.14
2022-08-18T18:27:40.667Z,29.95
2022-08-18T18:30:19.286Z,29.75
2022-08-18T18:33:14.088Z,29.56
2022-08-18T18:35:53.191Z,29.35
2022-08-18T18:38:35.408Z,29.14
2022-08-18T18:41:05.743Z,28.95
2022-08-18T18:43:47.351Z,28.79
2022-08-18T18:46:18.855Z,28.62
2022-08-18T18:49:01.282Z,28.46
2022-08-18T18:51:50.523Z,28.31
2022-08-18T18:54:33.005Z,28.15
2022-08-18T18:57:00.568Z,28.01
2022-08-18T18:59:48.971Z,27.90
2022-08-18T19:02:34.811Z,27.78
2022-08-18T19:05:10.665Z,27.66
2022-08-18T19:07:58.305Z,27.53
2022-08-18T19:10:37.429Z,27.41
2022-08-18T19:13:32.655Z,27.30
2022-08-18T19:16:11.765Z,27.17
2022-08-18T19:19:37.429Z,27.02
2022-08-18T19:22:15.918Z,26.88
2022-08-18T19:24:56.378Z,26.76
2022-08-18T19:28:13.749Z,26.62
2022-08-18T19:30:43.966Z,26.49
2022-08-18T19:33:24.775Z,26.40
2022-08-18T19:36:07.122Z,26.29
2022-08-18T19:38:52.014Z,26.19
2022-08-18T19:41:48.422Z,26.10
2022-08-18T19:44:37.475Z,26.01
2022-08-18T19:47:08.865Z,25.92
2022-08-18T19:50:01.351Z,25.84
2022-08-18T19:53:11.117Z,25.76
2022-08-18T19:55:47.442Z,25.67
2022-08-18T19:58:32.221Z,25.61
2022-08-18T20:01:04.757Z,25.54
2022-08-18T20:04:08.948Z,25.48
2022-08-18T20:06:57.498Z,25.43
2022-08-18T20:09:48.049Z,25.36
2022-08-18T20:12:42.627Z,25.29
2022-08-18T20:15:17.102Z,25.22
2022-08-18T20:18:05.935Z,25.16
2022-08-18T20:20:38.095Z,25.10
2022-08-18T20:23:34.948Z,25.04
2022-08-18T20:26:01.490Z,25.02
2022-08-18T20:28:37.541Z,24.94
2022-08-18T20:31:12.532Z,24.86
2022-08-18T20:34:03.969Z,24.79
2022-08-18T20:36:36.647Z,24.71
2022-08-18T20:39:35.138Z,24.64
2022-08-18T20:42:03.308Z,24.55
2022-08-18T20:44:48.471Z,24.49
2022-08-18T20:47:39.750Z,24.43
2022-08-18T20:50:12.836Z,24.37
2022-08-18T20:53:16.751Z,24.32
2022-08-18T20:56:31.650Z,24.28
2022-08-18T20:59:03.907Z,24.23
2022-08-18T21:01:35.791Z,24.20
2022-08-18T21:04:03.078Z,24.18
2022-08-18T21:06:37.428Z,24.15
2022-08-18T21:09:04.569Z,24.11
2022-08-18T21:11:47.282Z,24.08
2022-08-18T21:14:29.845Z,24.06
2022-08-18T21:16:58.764Z,24.01
2022-08-18T21:19:28.257Z,23.97
2022-08-18T21:22:01.249Z,23.93
2022-08-18T21:24:38.747Z,23.90
2022-08-18T21:27:05.136Z,23.86
2022-08-18T21:29:42.234Z,23.85
2022-08-18T21:32:31.342Z,23.86
2022-08-18T21:35:05.911Z,23.85
2022-08-18T21:37:40.963Z,23.86
2022-08-18T21:40:08.089Z,23.83
2022-08-18T21:42:37.393Z,23.83
2022-08-18T21:45:04.222Z,23.80
2022-08-18T21:47:35.662Z,23.77
2022-08-18T21:50:24.384Z,23.75
2022-08-18T21:52:58.231Z,23.71
2022-08-18T21:55:41.531Z,23.69
2022-08-18T21:58:08.539Z,23.65
2022-08-18T22:00:41.413Z,23.64
2022-08-18T22:03:25.897Z,23.62
2022-08-18T22:06:21.983Z,23.59
2022-08-18T22:08:59.281Z,23.55
2022-08-18T22:12:00.847Z,23.51
2022-08-18T22:14:54.292Z,23.46
2022-08-18T22:17:32.611Z,23.41
2022-08-18T22:20:38.615Z,23.36
2022-08-18T22:23:33.061Z,23.30
2022-08-18T22:26:17.556Z,23.21
2022-08-18T22:28:50.074Z,23.14
2022-08-18T22:31:20.871Z,23.08
2022-08-18T22:33:48.238Z,23.03
2022-08-18T22:36:18.967Z,22.98
2022-08-18T22:38:46.424Z,22.91
2022-08-18T22:41:14.088Z,22.87
2022-08-18T22:43:40.518Z,22.83
2022-08-18T22:46:07.084Z,22.77
2022-08-18T22:48:33.559Z,22.74
2022-08-18T22:51:00.039Z,22.71
2022-08-18T22:53:26.539Z,22.68
2022-08-18T22:55:53.339Z,22.65
2022-08-18T22:58:22.153Z,22.64
2022-08-18T23:01:01.236Z,22.61
2022-08-18T23:03:32.117Z,22.58
2022-08-18T23:06:08.886Z,22.55
2022-08-18T23:08:38.288Z,22.54
2022-08-18T23:11:21.814Z,22.56
2022-08-18T23:13:48.773Z,22.53
2022-08-18T23:16:30.433Z,22.49
2022-08-18T23:19:01.706Z,22.44
2022-08-18T23:21:35.485Z,22.39
2022-08-18T23:24:06.618Z,22.33
2022-08-18T23:26:34.203Z,22.27
2022-08-18T23:29:03.002Z,22.22
2022-08-18T23:31:30.298Z,22.18
2022-08-18T23:33:57.370Z,22.15
2022-08-18T23:36:23.802Z,22.10
2022-08-18T23:38:50.279Z,22.08
2022-08-18T23:41:16.816Z,22.06
2022-08-18T23:43:43.262Z,22.05
2022-08-18T23:46:23.046Z,22.06
2022-08-18T23:48:51.002Z,22.04
2022-08-18T23:51:44.339Z,22.03
2022-08-18T23:54:15.364Z,22.01
2022-08-18T23:56:41.849Z,21.99
2022-08-18T23:59:08.535Z,21.97
